createdAt,value
2023-05-05T00:02:15.455Z,88.54
2023-05-05T00:04:42.267Z,88.72
2023-05-05T00:07:09.026Z,87.06
2023-05-05T00:09:35.785Z,86.98
2023-05-05T00:12:02.887Z,86.90
2023-05-05T00:14:29.775Z,87.81
2023-05-05T00:16:56.512Z,87.74
2023-05-05T00:19:23.101Z,89.40
2023-05-05T00:21:49.786Z,88.43
2023-05-05T00:24:16.860Z,86.31
2023-05-05T00:26:43.450Z,86.48
2023-05-05T00:29:10.340Z,84.72
2023-05-05T00:31:37.803Z,85.29
2023-05-05T00:34:04.668Z,86.20
2023-05-05T00:36:31.329Z,87.91
2023-05-05T00:38:57.876Z,88.21
2023-05-05T00:41:24.635Z,89.29
2023-05-05T00:43:52.535Z,88.28
2023-05-05T00:46:24.561Z,85.87
2023-05-05T00:48:51.900Z,88.63
2023-05-05T00:51:20.184Z,89.30
2023-05-05T00:53:47.845Z,89.50
2023-05-05T00:56:16.927Z,90.91
2023-05-05T00:58:44.132Z,89.93
2023-05-05T01:01:12.012Z,90.33
2023-05-05T01:03:40.244Z,91.39
2023-05-05T01:06:34.809Z,91.65
2023-05-05T01:09:19.553Z,92.40
2023-05-05T01:12:24.835Z,92.35
2023-05-05T01:15:26.713Z,94.03
2023-05-05T01:18:00.975Z,93.16
2023-05-05T01:20:47.384Z,91.33
2023-05-05T01:23:29.581Z,92.35
2023-05-05T01:26:14.869Z,93.52
2023-05-05T01:29:10.287Z,91.48
2023-05-05T01:31:52.522Z,92.69
2023-05-05T01:34:34.950Z,92.10
2023-05-05T01:37:18.311Z,92.14
2023-05-05T01:39:50.063Z,93.03
2023-05-05T01:42:18.677Z,93.03
2023-05-05T01:44:47.640Z,94.53
2023-05-05T01:47:19.676Z,92.88
2023-05-05T01:49:47.790Z,94.21
2023-05-05T01:52:16.137Z,93.09
2023-05-05T01:54:47.889Z,94.63
2023-05-05T01:57:15.663Z,95.83
2023-05-05T01:59:42.685Z,95.95
2023-05-05T02:02:12.377Z,96.46
2023-05-05T02:04:42.523Z,94.80
2023-05-05T02:07:11.482Z,94.05
2023-05-05T02:09:38.914Z,93.02
2023-05-05T02:12:07.216Z,92.23
2023-05-05T02:14:35.051Z,93.66
2023-05-05T02:17:02.216Z,93.96
2023-05-05T02:19:31.836Z,94.26
2023-05-05T02:21:58.502Z,93.60
2023-05-05T02:24:28.914Z,94.10
2023-05-05T02:26:58.086Z,95.07
2023-05-05T02:29:30.816Z,95.21
2023-05-05T02:32:06.895Z,96.95
2023-05-05T02:34:36.947Z,97.32
2023-05-05T02:37:07.631Z,96.85
2023-05-05T02:39:45.811Z,95.78
2023-05-05T02:42:18.575Z,97.69
2023-05-05T02:44:46.356Z,95.99
2023-05-05T02:47:13.394Z,95.64
2023-05-05T02:49:40.215Z,94.78
2023-05-05T02:52:06.865Z,94.44
2023-05-05T02:54:33.828Z,94.36
2023-05-05T02:57:01.488Z,94.27
2023-05-05T02:59:35.065Z,94.47
2023-05-05T03:02:17.014Z,96.61
2023-05-05T03:04:50.618Z,95.34
2023-05-05T03:07:42.644Z,94.79
2023-05-05T03:10:13.859Z,95.84
2023-05-05T03:12:48.426Z,95.90
2023-05-05T03:15:18.357Z,96.04
2023-05-05T03:17:46.637Z,96.64
2023-05-05T03:20:15.127Z,97.20
2023-05-05T03:22:41.737Z,97.50
2023-05-05T03:25:08.737Z,97.52
2023-05-05T03:27:37.996Z,100.00
2023-05-05T03:30:05.567Z,99.30
2023-05-05T03:32:32.429Z,98.86
2023-05-05T03:34:59.117Z,99.33
2023-05-05T03:37:25.681Z,100.00
2023-05-05T03:39:52.279Z,99.20
2023-05-05T03:42:18.821Z,100.00
2023-05-05T03:44:45.488Z,100.00
2023-05-05T03:47:12.089Z,100.00
2023-05-05T03:49:38.689Z,100.00
2023-05-05T03:52:05.641Z,99.65
2023-05-05T03:54:32.196Z,100.00
2023-05-05T03:56:59.049Z,99.71
2023-05-05T03:59:25.683Z,99.88
2023-05-05T04:01:52.513Z,98.94
2023-05-05T04:04:19.231Z,100.00
2023-05-05T04:06:45.934Z,100.00
2023-05-05T04:09:12.483Z,100.00
2023-05-05T04:11:39.083Z,100.00
2023-05-05T04:14:05.628Z,100.00
2023-05-05T04:16:32.234Z,100.00
2023-05-05T04:18:58.924Z,100.00
2023-05-05T04:21:25.617Z,100.00
2023-05-05T04:23:52.876Z,100.00
2023-05-05T04:26:19.598Z,100.00
2023-05-05T04:28:46.252Z,99.51
2023-05-05T04:31:13.113Z,97.79
2023-05-05T04:33:39.900Z,97.26
2023-05-05T04:36:06.813Z,98.25
2023-05-05T04:38:33.577Z,96.74
2023-05-05T04:41:00.611Z,95.21
2023-05-05T04:43:27.948Z,96.78
2023-05-05T04:45:57.802Z,94.19
2023-05-05T04:48:24.415Z,94.49
2023-05-05T04:50:51.463Z,93.12
2023-05-05T04:53:18.182Z,93.35
2023-05-05T04:55:44.852Z,92.66
2023-05-05T04:58:11.443Z,93.37
2023-05-05T05:00:38.136Z,93.38
2023-05-05T05:03:05.040Z,91.68
2023-05-05T05:05:31.711Z,89.78
2023-05-05T05:07:58.355Z,88.54
2023-05-05T05:10:24.957Z,89.10
2023-05-05T05:12:51.536Z,85.08
2023-05-05T05:15:18.102Z,82.61
2023-05-05T05:17:44.751Z,79.63
2023-05-05T05:20:11.768Z,77.53
2023-05-05T05:22:38.958Z,77.25
2023-05-05T05:25:05.913Z,76.17
2023-05-05T05:27:32.468Z,75.32
2023-05-05T05:29:59.032Z,75.13
2023-05-05T05:32:25.841Z,73.70
2023-05-05T05:34:52.461Z,72.68
2023-05-05T05:37:19.197Z,71.26
2023-05-05T05:39:51.529Z,70.49
2023-05-05T05:42:18.171Z,72.52
2023-05-05T05:44:44.767Z,69.74
2023-05-05T05:47:11.453Z,71.68
2023-05-05T05:49:38.095Z,68.21
2023-05-05T05:52:04.811Z,69.07
2023-05-05T05:54:32.889Z,70.39
2023-05-05T05:56:59.459Z,67.58
2023-05-05T05:59:26.035Z,67.16
2023-05-05T06:01:52.749Z,69.77
2023-05-05T06:04:19.307Z,71.19
2023-05-05T06:06:45.912Z,65.55
2023-05-05T06:09:13.013Z,65.57
2023-05-05T06:11:39.747Z,70.12
2023-05-05T06:14:06.355Z,70.21
2023-05-05T06:16:33.167Z,65.95
2023-05-05T06:19:00.029Z,65.84
2023-05-05T06:21:27.752Z,67.94
2023-05-05T06:23:54.345Z,67.45
2023-05-05T06:26:21.551Z,69.63
2023-05-05T06:28:48.177Z,66.48
2023-05-05T06:31:14.877Z,65.17
2023-05-05T06:33:44.042Z,63.30
2023-05-05T06:36:14.274Z,67.90
2023-05-05T06:38:45.718Z,67.25
2023-05-05T06:41:12.856Z,63.94
2023-05-05T06:43:39.807Z,58.97
2023-05-05T06:46:06.581Z,65.13
2023-05-05T06:48:33.221Z,67.01
2023-05-05T06:50:59.913Z,67.98
2023-05-05T06:53:26.538Z,60.20
2023-05-05T06:55:53.125Z,60.62
2023-05-05T06:58:21.101Z,67.35
2023-05-05T07:00:47.548Z,54.77
2023-05-05T07:03:14.453Z,56.28
2023-05-05T07:05:41.123Z,65.39
2023-05-05T07:08:09.088Z,60.93
2023-05-05T07:10:35.981Z,48.29
2023-05-05T07:13:03.012Z,59.98
2023-05-05T07:15:29.960Z,62.51
2023-05-05T07:17:57.269Z,52.39
2023-05-05T07:20:24.560Z,64.60
2023-05-05T07:22:51.256Z,61.60
2023-05-05T07:25:17.943Z,56.20
2023-05-05T07:27:44.761Z,57.51
2023-05-05T07:30:16.312Z,56.32
2023-05-05T07:32:44.175Z,49.21
2023-05-05T07:35:10.913Z,58.29
2023-05-05T07:37:37.595Z,53.67
2023-05-05T07:40:04.643Z,56.58
2023-05-05T07:42:31.270Z,51.49
2023-05-05T07:44:57.825Z,57.05
2023-05-05T07:47:24.594Z,48.22
2023-05-05T07:49:51.446Z,50.66
2023-05-05T07:52:18.077Z,46.59
2023-05-05T07:54:45.458Z,56.85
2023-05-05T07:57:12.074Z,58.87
2023-05-05T07:59:41.122Z,44.16
2023-05-05T08:02:07.731Z,50.55
2023-05-05T08:04:34.461Z,51.65
2023-05-05T08:07:01.198Z,47.60
2023-05-05T08:09:27.816Z,44.86
2023-05-05T08:11:54.658Z,43.21
2023-05-05T08:14:21.290Z,46.66
2023-05-05T08:16:48.948Z,51.96
2023-05-05T08:19:28.257Z,44.43
2023-05-05T08:21:56.094Z,46.74
2023-05-05T08:24:22.749Z,47.50
2023-05-05T08:26:49.404Z,42.75
2023-05-05T08:29:16.082Z,43.81
2023-05-05T08:31:42.721Z,40.76
2023-05-05T08:34:09.402Z,39.94
2023-05-05T08:36:36.056Z,43.60
2023-05-05T08:39:02.902Z,48.78
2023-05-05T08:41:29.501Z,45.96
2023-05-05T08:43:56.117Z,41.94
2023-05-05T08:46:23.862Z,40.38
2023-05-05T08:48:54.948Z,36.17
2023-05-05T08:51:22.080Z,44.64
2023-05-05T08:53:54.469Z,36.91
2023-05-05T08:56:22.091Z,38.90
2023-05-05T08:58:49.611Z,44.18
2023-05-05T09:01:17.029Z,44.39
2023-05-05T09:03:44.907Z,34.87
2023-05-05T09:06:11.530Z,42.18
2023-05-05T09:08:39.026Z,37.54
2023-05-05T09:11:06.201Z,36.58
2023-05-05T09:13:33.058Z,40.55
2023-05-05T09:15:59.793Z,35.26
2023-05-05T09:18:26.844Z,40.57
2023-05-05T09:20:53.510Z,33.91
2023-05-05T09:23:21.386Z,41.34
2023-05-05T09:26:03.880Z,33.56
2023-05-05T09:28:30.497Z,36.20
2023-05-05T09:31:15.442Z,33.17
2023-05-05T09:33:42.307Z,35.33
2023-05-05T09:36:08.876Z,32.40
2023-05-05T09:38:36.770Z,35.37
2023-05-05T09:41:05.363Z,35.30
2023-05-05T09:43:50.126Z,32.73
2023-05-05T09:46:16.831Z,29.92
2023-05-05T09:48:43.454Z,30.95
2023-05-05T09:51:10.148Z,34.23
2023-05-05T09:53:41.563Z,33.06
2023-05-05T09:56:08.360Z,33.83
2023-05-05T09:58:34.939Z,36.10
2023-05-05T10:01:01.682Z,35.19
2023-05-05T10:03:28.278Z,36.15
2023-05-05T10:05:56.874Z,36.89
2023-05-05T10:08:26.418Z,34.82
2023-05-05T10:11:01.911Z,34.51
2023-05-05T10:13:30.104Z,36.39
2023-05-05T10:15:57.958Z,34.61
2023-05-05T10:18:27.050Z,34.64
2023-05-05T10:21:04.148Z,36.14
2023-05-05T10:23:48.985Z,35.08
2023-05-05T10:26:18.650Z,36.39
2023-05-05T10:28:50.545Z,36.70
2023-05-05T10:31:25.765Z,35.87
2023-05-05T10:34:03.913Z,35.80
2023-05-05T10:36:31.893Z,35.65
2023-05-05T10:39:00.577Z,35.96
2023-05-05T10:41:28.582Z,36.89
2023-05-05T10:43:56.601Z,36.59
2023-05-05T10:46:24.197Z,37.31
2023-05-05T10:49:02.592Z,35.73
2023-05-05T10:51:54.559Z,37.12
2023-05-05T10:54:32.637Z,36.79
2023-05-05T10:57:02.653Z,36.68
2023-05-05T10:59:38.665Z,36.85
2023-05-05T11:02:28.325Z,37.41
2023-05-05T11:05:23.324Z,39.23
2023-05-05T11:07:52.862Z,36.64
2023-05-05T11:10:20.976Z,39.21
2023-05-05T11:12:57.909Z,38.90
2023-05-05T11:15:30.550Z,40.07
2023-05-05T11:17:58.423Z,39.38
2023-05-05T11:20:48.128Z,41.46
2023-05-05T11:23:20.503Z,39.15
2023-05-05T11:25:48.093Z,39.05
2023-05-05T11:28:16.432Z,39.13
2023-05-05T11:30:55.294Z,38.42
2023-05-05T11:33:29.247Z,39.76
2023-05-05T11:36:04.254Z,39.22
2023-05-05T11:38:54.631Z,38.78
2023-05-05T11:41:33.566Z,38.68
2023-05-05T11:44:19.738Z,38.26
2023-05-05T11:46:52.500Z,39.48
2023-05-05T11:49:39.041Z,39.64
2023-05-05T11:52:08.132Z,38.46
2023-05-05T11:54:37.738Z,38.63
2023-05-05T11:57:07.187Z,38.40
2023-05-05T11:59:53.237Z,39.85
2023-05-05T12:02:20.573Z,38.45
2023-05-05T12:04:49.607Z,38.24
2023-05-05T12:07:22.496Z,39.92
2023-05-05T12:09:50.084Z,39.09
2023-05-05T12:12:17.288Z,37.90
2023-05-05T12:14:52.454Z,38.38
2023-05-05T12:17:20.701Z,39.51
2023-05-05T12:19:54.969Z,38.84
2023-05-05T12:22:26.087Z,38.32
2023-05-05T12:24:57.114Z,38.93
2023-05-05T12:27:24.543Z,37.21
2023-05-05T12:29:51.506Z,37.59
2023-05-05T12:32:22.693Z,38.02
2023-05-05T12:34:53.849Z,37.78
2023-05-05T12:37:21.836Z,38.27
2023-05-05T12:39:49.948Z,37.17
2023-05-05T12:42:16.757Z,36.46
2023-05-05T12:44:44.402Z,38.35
2023-05-05T12:47:12.405Z,39.42
2023-05-05T12:49:49.726Z,37.16
2023-05-05T12:52:16.872Z,39.25
2023-05-05T12:55:01.661Z,36.97
2023-05-05T12:57:28.256Z,37.72
2023-05-05T12:59:54.931Z,37.33
2023-05-05T13:02:21.661Z,36.84
2023-05-05T13:04:50.563Z,37.87
2023-05-05T13:07:19.756Z,39.01
2023-05-05T13:09:50.693Z,38.15
2023-05-05T13:12:17.953Z,38.46
2023-05-05T13:14:45.349Z,37.58
2023-05-05T13:17:12.302Z,37.36
2023-05-05T13:19:42.796Z,37.68
2023-05-05T13:22:13.026Z,39.08
2023-05-05T13:24:50.684Z,40.27
2023-05-05T13:27:19.016Z,38.30
2023-05-05T13:29:46.172Z,37.00
2023-05-05T13:32:12.831Z,38.43
2023-05-05T13:34:39.663Z,38.13
2023-05-05T13:37:06.749Z,38.18
2023-05-05T13:39:33.334Z,38.35
2023-05-05T13:42:00.007Z,39.21
2023-05-05T13:44:26.631Z,40.25
2023-05-05T13:46:53.346Z,39.93
2023-05-05T13:49:20.255Z,40.63
2023-05-05T13:51:47.434Z,39.43
2023-05-05T13:54:14.117Z,39.88
2023-05-05T13:56:40.898Z,40.12
2023-05-05T13:59:07.516Z,40.28
2023-05-05T14:01:34.199Z,39.30
2023-05-05T14:04:03.656Z,39.04
2023-05-05T14:06:32.612Z,39.51
2023-05-05T14:08:59.376Z,38.47
2023-05-05T14:11:26.042Z,39.56
2023-05-05T14:13:52.879Z,37.89
2023-05-05T14:16:19.605Z,37.94
2023-05-05T14:18:46.270Z,39.32
2023-05-05T14:21:12.982Z,38.62
2023-05-05T14:23:39.629Z,38.50
2023-05-05T14:26:06.299Z,39.56
2023-05-05T14:28:32.910Z,38.45
2023-05-05T14:30:59.582Z,39.10
2023-05-05T14:33:26.633Z,38.81
2023-05-05T14:35:53.290Z,39.44
2023-05-05T14:38:19.987Z,39.13
2023-05-05T14:40:46.690Z,39.18
2023-05-05T14:43:13.375Z,38.83
2023-05-05T14:45:40.112Z,39.35
2023-05-05T14:48:06.878Z,39.32
2023-05-05T14:50:33.502Z,39.82
2023-05-05T14:53:00.582Z,38.69
2023-05-05T14:55:27.289Z,39.24
2023-05-05T14:57:53.893Z,40.11
2023-05-05T15:00:20.671Z,39.90
2023-05-05T15:02:48.408Z,39.70
2023-05-05T15:05:15.336Z,39.89
2023-05-05T15:07:41.967Z,39.65
2023-05-05T15:10:09.044Z,40.42
2023-05-05T15:12:35.838Z,39.62
2023-05-05T15:15:02.669Z,39.64
2023-05-05T15:17:30.850Z,39.39
2023-05-05T15:19:57.500Z,39.98
2023-05-05T15:22:24.241Z,39.52
2023-05-05T15:24:50.973Z,39.08
2023-05-05T15:27:18.309Z,39.21
2023-05-05T15:29:45.104Z,39.96
2023-05-05T15:32:11.914Z,40.10
2023-05-05T15:34:38.574Z,39.76
2023-05-05T15:37:05.213Z,40.32
2023-05-05T15:39:31.823Z,39.57
2023-05-05T15:42:03.747Z,39.53
2023-05-05T15:44:31.238Z,40.19
2023-05-05T15:46:57.945Z,40.16
2023-05-05T15:49:24.682Z,40.11
2023-05-05T15:51:51.289Z,40.42
2023-05-05T15:54:17.983Z,39.98
2023-05-05T15:56:44.709Z,40.74
2023-05-05T15:59:11.326Z,40.56
2023-05-05T16:01:38.061Z,40.47
2023-05-05T16:04:04.923Z,40.22
2023-05-05T16:06:31.824Z,39.53
2023-05-05T16:08:58.752Z,38.84
2023-05-05T16:11:26.528Z,39.85
2023-05-05T16:13:53.697Z,39.86
2023-05-05T16:16:20.435Z,40.12
2023-05-05T16:18:47.119Z,40.45
2023-05-05T16:21:14.088Z,40.37
2023-05-05T16:23:40.795Z,40.90
2023-05-05T16:26:07.385Z,40.81
2023-05-05T16:28:34.412Z,41.09
2023-05-05T16:31:02.272Z,41.42
2023-05-05T16:33:29.245Z,41.96
2023-05-05T16:35:56.248Z,42.51
2023-05-05T16:38:22.914Z,42.13
2023-05-05T16:40:49.695Z,43.92
2023-05-05T16:43:16.450Z,44.24
2023-05-05T16:45:43.611Z,44.35
2023-05-05T16:48:10.451Z,43.94
2023-05-05T16:50:37.109Z,43.79
2023-05-05T16:53:03.807Z,45.26
2023-05-05T16:55:30.484Z,45.54
2023-05-05T16:57:57.304Z,46.08
2023-05-05T17:00:23.911Z,45.98
2023-05-05T17:02:50.557Z,45.10
2023-05-05T17:05:17.816Z,44.90
2023-05-05T17:07:45.904Z,45.66
2023-05-05T17:10:12.627Z,44.35
2023-05-05T17:12:39.302Z,43.69
2023-05-05T17:15:07.007Z,44.30
2023-05-05T17:17:33.875Z,44.95
2023-05-05T17:20:03.063Z,44.11
2023-05-05T17:22:29.810Z,43.87
2023-05-05T17:24:56.617Z,44.77
2023-05-05T17:27:23.201Z,45.86
2023-05-05T17:29:49.878Z,46.07
2023-05-05T17:32:16.460Z,46.21
2023-05-05T17:34:43.052Z,47.01
2023-05-05T17:37:09.783Z,47.17
2023-05-05T17:39:36.413Z,46.98
2023-05-05T17:42:04.312Z,47.16
2023-05-05T17:44:32.591Z,47.45
2023-05-05T17:46:59.350Z,47.93
2023-05-05T17:49:26.357Z,48.52
2023-05-05T17:51:53.030Z,47.92
2023-05-05T17:54:19.658Z,49.15
2023-05-05T17:56:46.406Z,48.74
2023-05-05T17:59:13.028Z,49.78
2023-05-05T18:01:39.725Z,49.77
2023-05-05T18:04:06.353Z,50.34
2023-05-05T18:06:32.963Z,49.98
2023-05-05T18:08:59.610Z,50.66
2023-05-05T18:11:30.930Z,50.50
2023-05-05T18:13:57.677Z,49.09
2023-05-05T18:16:24.258Z,50.41
2023-05-05T18:18:50.964Z,48.71
2023-05-05T18:21:17.587Z,51.00
2023-05-05T18:23:44.274Z,51.32
2023-05-05T18:26:10.989Z,49.74
2023-05-05T18:28:37.661Z,50.10
2023-05-05T18:31:04.392Z,50.21
2023-05-05T18:33:31.120Z,50.40
2023-05-05T18:35:57.993Z,51.37
2023-05-05T18:38:24.849Z,51.39
2023-05-05T18:40:51.548Z,51.07
2023-05-05T18:43:18.211Z,50.33
2023-05-05T18:45:44.920Z,52.86
2023-05-05T18:48:11.902Z,51.27
2023-05-05T18:50:38.696Z,52.00
2023-05-05T18:53:05.358Z,52.09
2023-05-05T18:55:31.927Z,52.30
2023-05-05T18:57:58.539Z,56.00
2023-05-05T19:00:25.353Z,55.09
2023-05-05T19:02:52.079Z,55.05
2023-05-05T19:05:18.828Z,56.46
2023-05-05T19:07:45.796Z,55.68
2023-05-05T19:10:12.491Z,55.33
2023-05-05T19:12:39.192Z,57.38
2023-05-05T19:15:06.976Z,59.86
2023-05-05T19:17:34.027Z,59.35
2023-05-05T19:20:00.722Z,58.86
2023-05-05T19:22:27.336Z,56.31
2023-05-05T19:24:53.986Z,56.35
2023-05-05T19:27:21.889Z,58.50
2023-05-05T19:29:52.735Z,59.06
2023-05-05T19:32:20.904Z,58.49
2023-05-05T19:34:48.028Z,58.01
2023-05-05T19:37:14.630Z,60.30
2023-05-05T19:39:44.393Z,58.58
2023-05-05T19:42:11.434Z,57.97
2023-05-05T19:44:38.120Z,59.17
2023-05-05T19:47:05.190Z,60.79
2023-05-05T19:49:32.082Z,58.17
2023-05-05T19:51:59.357Z,59.28
2023-05-05T19:54:26.837Z,61.93
2023-05-05T19:56:55.212Z,60.59
2023-05-05T19:59:22.041Z,62.86
2023-05-05T20:01:48.798Z,63.37
2023-05-05T20:04:15.537Z,62.33
2023-05-05T20:06:42.205Z,62.90
2023-05-05T20:09:08.873Z,63.35
2023-05-05T20:11:35.907Z,61.87
2023-05-05T20:14:02.614Z,62.61
2023-05-05T20:16:29.322Z,65.46
2023-05-05T20:18:56.147Z,63.46
2023-05-05T20:21:23.234Z,64.55
2023-05-05T20:23:49.956Z,63.25
2023-05-05T20:26:17.055Z,65.39
2023-05-05T20:28:45.461Z,64.67
2023-05-05T20:31:14.175Z,67.73
2023-05-05T20:33:40.837Z,64.45
2023-05-05T20:36:07.602Z,63.21
2023-05-05T20:38:34.185Z,66.76
2023-05-05T20:41:00.766Z,64.72
2023-05-05T20:43:27.668Z,65.40
2023-05-05T20:45:54.258Z,63.03
2023-05-05T20:48:21.093Z,66.39
2023-05-05T20:50:47.685Z,65.09
2023-05-05T20:53:14.977Z,64.75
2023-05-05T20:55:41.700Z,66.21
2023-05-05T20:58:08.243Z,63.50
2023-05-05T21:00:34.991Z,64.00
2023-05-05T21:03:02.886Z,64.82
2023-05-05T21:05:30.848Z,67.29
2023-05-05T21:07:59.186Z,68.21
2023-05-05T21:10:27.434Z,68.49
2023-05-05T21:12:54.226Z,70.85
2023-05-05T21:15:20.922Z,68.72
2023-05-05T21:17:47.957Z,69.25
2023-05-05T21:20:14.712Z,70.64
2023-05-05T21:22:41.428Z,69.24
2023-05-05T21:25:19.722Z,68.37
2023-05-05T21:27:49.817Z,67.73
2023-05-05T21:30:17.118Z,68.43
2023-05-05T21:32:44.210Z,67.37
2023-05-05T21:35:10.814Z,64.45
2023-05-05T21:37:39.204Z,64.23
2023-05-05T21:40:10.782Z,69.33
2023-05-05T21:42:37.679Z,69.12
2023-05-05T21:45:04.626Z,68.53
2023-05-05T21:47:31.520Z,67.09
2023-05-05T21:49:59.099Z,68.24
2023-05-05T21:52:27.806Z,70.29
2023-05-05T21:54:54.256Z,72.45
2023-05-05T21:57:20.909Z,68.54
2023-05-05T21:59:48.542Z,69.10
2023-05-05T22:02:15.180Z,71.21
2023-05-05T22:04:42.213Z,68.55
2023-05-05T22:07:09.823Z,71.40
2023-05-05T22:09:36.785Z,74.11
2023-05-05T22:12:03.549Z,72.94
2023-05-05T22:14:30.183Z,72.93
2023-05-05T22:16:56.878Z,70.24
2023-05-05T22:19:23.523Z,71.67
2023-05-05T22:21:50.275Z,69.98
2023-05-05T22:24:16.957Z,71.04
2023-05-05T22:26:43.699Z,72.28
2023-05-05T22:29:11.586Z,73.21
2023-05-05T22:31:38.542Z,74.74
2023-05-05T22:34:05.198Z,74.58
2023-05-05T22:36:31.857Z,76.24
2023-05-05T22:38:58.572Z,75.56
2023-05-05T22:41:25.304Z,72.86
2023-05-05T22:43:51.862Z,73.93
2023-05-05T22:46:18.594Z,74.94
2023-05-05T22:48:45.347Z,76.53
2023-05-05T22:51:11.942Z,75.81
2023-05-05T22:53:39.324Z,74.37
2023-05-05T22:56:06.334Z,76.33
2023-05-05T22:58:33.418Z,74.17
2023-05-05T23:01:00.020Z,74.04
2023-05-05T23:03:26.736Z,74.79
2023-05-05T23:05:53.314Z,74.04
2023-05-05T23:08:20.552Z,74.49
2023-05-05T23:10:47.219Z,72.38
2023-05-05T23:13:13.880Z,74.59
2023-05-05T23:15:41.239Z,75.26
2023-05-05T23:18:08.053Z,75.05
2023-05-05T23:20:34.847Z,73.56
2023-05-05T23:23:01.469Z,76.27
2023-05-05T23:25:28.091Z,76.50
2023-05-05T23:27:54.731Z,73.91
2023-05-05T23:30:21.523Z,75.89
2023-05-05T23:32:48.168Z,77.00
2023-05-05T23:35:15.019Z,76.73
2023-05-05T23:37:41.651Z,78.46
2023-05-05T23:40:08.850Z,76.41
2023-05-05T23:42:35.565Z,78.59
2023-05-05T23:45:02.322Z,77.47
2023-05-05T23:47:28.898Z,76.02
2023-05-05T23:49:55.506Z,76.98
2023-05-05T23:52:22.574Z,77.27
2023-05-05T23:54:49.150Z,76.81
2023-05-05T23:57:16.044Z,78.31
2023-05-05T23:59:42.644Z,77.23
